createdAt,value
2022-10-21T00:01:30.696Z,100305.84
2022-10-21T00:03:59.339Z,100307.47
2022-10-21T00:06:28.159Z,100308.41
2022-10-21T00:08:56.853Z,100312.59
2022-10-21T00:11:25.663Z,100309.28
2022-10-21T00:13:54.239Z,100309.28
2022-10-21T00:16:25.112Z,100314.25
2022-10-21T00:18:53.816Z,100310.06
2022-10-21T00:21:23.611Z,100309.19
2022-10-21T00:23:52.373Z,100305.66
2022-10-21T00:26:21.549Z,100318.44
2022-10-21T00:28:50.189Z,100312.59
2022-10-21T00:31:18.742Z,100313.38
2022-10-21T00:33:48.811Z,100321.13
2022-10-21T00:36:17.470Z,100309.06
2022-10-21T00:38:48.405Z,100304.69
2022-10-21T00:41:20.048Z,100298.72
2022-10-21T00:44:01.013Z,100302.22
2022-10-21T00:46:36.820Z,100298.97
2022-10-21T00:49:14.311Z,100298.06
2022-10-21T00:51:43.849Z,100298.97
2022-10-21T00:54:12.710Z,100294.72
2022-10-21T00:56:45.675Z,100292.94
2022-10-21T00:59:15.382Z,100284.41
2022-10-21T01:01:44.237Z,100272.66
2022-10-21T01:04:14.167Z,100270.03
2022-10-21T01:06:43.877Z,100262.31
2022-10-21T01:09:13.967Z,100255.50
2022-10-21T01:11:45.888Z,100258.88
2022-10-21T01:14:30.599Z,100249.34
2022-10-21T01:17:20.653Z,100264.34
2022-10-21T01:20:17.870Z,100276.03
2022-10-21T01:23:08.509Z,100259.88
2022-10-21T01:25:59.421Z,100263.34
2022-10-21T01:28:41.919Z,100263.41
2022-10-21T01:31:19.680Z,100265.97
2022-10-21T01:33:55.831Z,100261.78
2022-10-21T01:36:32.497Z,100258.44
2022-10-21T01:39:12.437Z,100247.47
2022-10-21T01:41:45.028Z,100251.63
2022-10-21T01:44:20.291Z,100249.13
2022-10-21T01:46:57.436Z,100251.66
2022-10-21T01:49:31.519Z,100253.22
2022-10-21T01:52:02.471Z,100247.44
2022-10-21T01:54:35.158Z,100235.78
2022-10-21T01:57:08.051Z,100236.69
2022-10-21T01:59:37.424Z,100240.06
2022-10-21T02:02:09.719Z,100237.34
2022-10-21T02:04:42.740Z,100247.47
2022-10-21T02:07:11.640Z,100235.75
2022-10-21T02:09:40.299Z,100229.09
2022-10-21T02:12:09.318Z,100228.16
2022-10-21T02:14:42.791Z,100212.91
2022-10-21T02:17:16.901Z,100210.31
2022-10-21T02:19:46.920Z,100212.00
2022-10-21T02:22:22.102Z,100226.34
2022-10-21T02:24:54.982Z,100230.41
2022-10-21T02:27:24.671Z,100227.06
2022-10-21T02:29:54.310Z,100222.84
2022-10-21T02:32:31.997Z,100220.19
2022-10-21T02:35:11.345Z,100218.22
2022-10-21T02:37:50.990Z,100213.78
2022-10-21T02:40:22.168Z,100224.72
2022-10-21T02:42:56.499Z,100219.66
2022-10-21T02:45:25.339Z,100207.75
2022-10-21T02:47:55.738Z,100216.25
2022-10-21T02:50:24.327Z,100213.66
2022-10-21T02:52:52.966Z,100216.25
2022-10-21T02:55:21.540Z,100207.56
2022-10-21T02:57:50.350Z,100193.03
2022-10-21T03:00:19.040Z,100200.72
2022-10-21T03:02:47.686Z,100205.94
2022-10-21T03:05:18.147Z,100205.13
2022-10-21T03:07:46.805Z,100208.53
2022-10-21T03:10:15.420Z,100202.59
2022-10-21T03:12:44.601Z,100190.66
2022-10-21T03:15:13.270Z,100188.06
2022-10-21T03:17:42.147Z,100203.38
2022-10-21T03:20:11.311Z,100199.19
2022-10-21T03:22:41.338Z,100195.78
2022-10-21T03:25:10.637Z,100192.22
2022-10-21T03:27:39.528Z,100197.22
2022-10-21T03:30:10.050Z,100194.69
2022-10-21T03:32:39.314Z,100194.75
2022-10-21T03:35:09.319Z,100188.06
2022-10-21T03:37:38.050Z,100192.38
2022-10-21T03:40:12.295Z,100192.41
2022-10-21T03:42:41.779Z,100181.16
2022-10-21T03:45:11.822Z,100199.06
2022-10-21T03:47:40.637Z,100187.31
2022-10-21T03:50:13.903Z,100192.47
2022-10-21T03:52:45.348Z,100192.47
2022-10-21T03:55:15.356Z,100191.59
2022-10-21T03:57:44.010Z,100187.50
2022-10-21T04:00:14.423Z,100185.84
2022-10-21T04:02:44.079Z,100190.06
2022-10-21T04:05:13.159Z,100188.31
2022-10-21T04:07:41.975Z,100201.81
2022-10-21T04:10:11.791Z,100201.06
2022-10-21T04:12:41.958Z,100205.22
2022-10-21T04:15:14.001Z,100199.22
2022-10-21T04:17:43.287Z,100192.50
2022-10-21T04:20:12.596Z,100187.41
2022-10-21T04:22:41.456Z,100185.09
2022-10-21T04:25:11.315Z,100179.25
2022-10-21T04:27:41.263Z,100169.16
2022-10-21T04:30:10.919Z,100177.75
2022-10-21T04:32:39.616Z,100186.25
2022-10-21T04:35:08.718Z,100190.53
2022-10-21T04:37:40.423Z,100184.78
2022-10-21T04:40:10.636Z,100164.78
2022-10-21T04:42:39.311Z,100171.78
2022-10-21T04:45:10.837Z,100175.22
2022-10-21T04:47:39.887Z,100176.94
2022-10-21T04:50:09.791Z,100163.50
2022-10-21T04:52:38.501Z,100168.75
2022-10-21T04:55:08.299Z,100162.91
2022-10-21T04:57:36.918Z,100155.25
2022-10-21T05:00:06.650Z,100159.50
2022-10-21T05:02:37.505Z,100152.78
2022-10-21T05:05:07.368Z,100158.81
2022-10-21T05:07:36.041Z,100175.91
2022-10-21T05:10:04.922Z,100162.53
2022-10-21T05:12:33.433Z,100165.09
2022-10-21T05:15:02.433Z,100172.94
2022-10-21T05:17:31.249Z,100159.47
2022-10-21T05:20:01.258Z,100168.19
2022-10-21T05:22:29.951Z,100170.88
2022-10-21T05:24:58.511Z,100168.53
2022-10-21T05:27:27.299Z,100175.28
2022-10-21T05:29:55.850Z,100176.16
2022-10-21T05:32:24.531Z,100178.78
2022-10-21T05:34:53.129Z,100178.94
2022-10-21T05:37:23.291Z,100162.09
2022-10-21T05:39:51.877Z,100167.31
2022-10-21T05:42:20.529Z,100157.25
2022-10-21T05:44:49.650Z,100169.16
2022-10-21T05:47:18.230Z,100160.78
2022-10-21T05:49:46.922Z,100160.91
2022-10-21T05:52:15.428Z,100152.59
2022-10-21T05:54:45.477Z,100171.44
2022-10-21T05:57:14.181Z,100174.91
2022-10-21T05:59:42.800Z,100166.44
2022-10-21T06:02:11.644Z,100178.47
2022-10-21T06:04:40.330Z,100179.44
2022-10-21T06:07:08.971Z,100177.81
2022-10-21T06:09:38.030Z,100180.47
2022-10-21T06:12:08.232Z,100181.41
2022-10-21T06:14:36.971Z,100170.53
2022-10-21T06:17:06.358Z,100176.56
2022-10-21T06:19:35.020Z,100172.41
2022-10-21T06:22:03.538Z,100174.25
2022-10-21T06:24:33.430Z,100173.50
2022-10-21T06:27:02.121Z,100179.47
2022-10-21T06:29:32.290Z,100175.38
2022-10-21T06:32:00.971Z,100184.81
2022-10-21T06:34:29.559Z,100185.72
2022-10-21T06:36:58.246Z,100194.34
2022-10-21T06:39:26.883Z,100194.44
2022-10-21T06:41:55.592Z,100195.41
2022-10-21T06:44:43.613Z,100197.22
2022-10-21T06:47:12.507Z,100200.63
2022-10-21T06:49:41.030Z,100204.16
2022-10-21T06:52:09.670Z,100205.97
2022-10-21T06:54:38.150Z,100189.09
2022-10-21T06:57:06.775Z,100182.44
2022-10-21T06:59:35.223Z,100174.06
2022-10-21T07:02:05.228Z,100179.22
2022-10-21T07:04:33.716Z,100180.19
2022-10-21T07:07:02.294Z,100191.22
2022-10-21T07:09:30.951Z,100183.59
2022-10-21T07:11:59.445Z,100176.88
2022-10-21T07:14:28.329Z,100179.47
2022-10-21T07:16:56.834Z,100172.75
2022-10-21T07:19:26.781Z,100175.34
2022-10-21T07:21:55.801Z,100179.63
2022-10-21T07:24:24.393Z,100181.41
2022-10-21T07:26:52.983Z,100167.00
2022-10-21T07:29:21.557Z,100168.78
2022-10-21T07:31:50.402Z,100164.59
2022-10-21T07:34:19.160Z,100156.13
2022-10-21T07:36:53.205Z,100156.22
2022-10-21T07:39:25.153Z,100159.56
2022-10-21T07:41:56.145Z,100157.88
2022-10-21T07:44:27.293Z,100150.25
2022-10-21T07:46:56.027Z,100147.75
2022-10-21T07:49:25.803Z,100143.59
2022-10-21T07:51:55.739Z,100140.31
2022-10-21T07:54:24.610Z,100156.75
2022-10-21T07:56:53.925Z,100146.84
2022-10-21T07:59:24.486Z,100144.44
2022-10-21T08:01:54.247Z,100149.59
2022-10-21T08:04:24.823Z,100147.97
2022-10-21T08:06:53.603Z,100140.34
2022-10-21T08:09:23.906Z,100149.72
2022-10-21T08:11:52.481Z,100140.34
2022-10-21T08:14:21.007Z,100141.22
2022-10-21T08:16:54.010Z,100140.38
2022-10-21T08:19:29.742Z,100148.91
2022-10-21T08:21:59.155Z,100131.97
2022-10-21T08:24:29.808Z,100137.94
2022-10-21T08:26:58.334Z,100139.66
2022-10-21T08:29:27.155Z,100126.84
2022-10-21T08:31:55.805Z,100120.06
2022-10-21T08:34:24.649Z,100119.28
2022-10-21T08:36:53.205Z,100112.47
2022-10-21T08:39:21.892Z,100108.22
2022-10-21T08:42:06.329Z,100096.25
2022-10-21T08:44:44.486Z,100088.59
2022-10-21T08:47:32.166Z,100090.28
2022-10-21T08:50:04.951Z,100082.59
2022-10-21T08:52:41.703Z,100093.72
2022-10-21T08:55:18.116Z,100098.84
2022-10-21T08:57:49.219Z,100104.81
2022-10-21T09:00:21.634Z,100094.56
2022-10-21T09:03:05.271Z,100065.56
2022-10-21T09:05:59.911Z,100067.28
2022-10-21T09:08:37.835Z,100070.69
2022-10-21T09:11:14.341Z,100070.66
2022-10-21T09:13:57.140Z,100065.53
2022-10-21T09:16:35.342Z,100066.38
2022-10-21T09:19:15.339Z,100060.41
2022-10-21T09:22:10.876Z,100059.56
2022-10-21T09:24:55.932Z,100071.50
2022-10-21T09:27:32.337Z,100079.19
2022-10-21T09:30:18.461Z,100086.00
2022-10-21T09:32:51.276Z,100080.94
2022-10-21T09:35:28.463Z,100065.56
2022-10-21T09:38:00.160Z,100073.25
2022-10-21T09:40:31.672Z,100063.84
2022-10-21T09:43:03.192Z,100058.72
2022-10-21T09:45:36.520Z,100062.13
2022-10-21T09:48:08.662Z,100056.16
2022-10-21T09:50:39.047Z,100045.06
2022-10-21T09:53:14.937Z,100036.53
2022-10-21T09:55:47.297Z,100041.66
2022-10-21T09:58:26.628Z,100026.34
2022-10-21T10:00:57.417Z,100023.75
2022-10-21T10:03:34.734Z,100022.06
2022-10-21T10:06:04.276Z,100018.63
2022-10-21T10:08:38.618Z,100015.19
2022-10-21T10:11:19.654Z,100010.06
2022-10-21T10:13:50.295Z,100013.50
2022-10-21T10:16:28.783Z,100019.44
2022-10-21T10:19:16.927Z,100016.88
2022-10-21T10:21:48.298Z,100022.88
2022-10-21T10:24:19.570Z,100025.41
2022-10-21T10:26:49.258Z,100024.56
2022-10-21T10:29:24.298Z,100017.75
2022-10-21T10:31:57.581Z,100018.59
2022-10-21T10:34:32.527Z,100022.03
2022-10-21T10:37:04.669Z,100020.31
2022-10-21T10:39:36.248Z,100008.38
2022-10-21T10:42:05.382Z,100000.69
2022-10-21T10:44:39.122Z,99998.97
2022-10-21T10:47:19.801Z,99989.59
2022-10-21T10:49:48.758Z,99986.16
2022-10-21T10:52:22.697Z,99978.50
2022-10-21T10:55:19.796Z,99966.56
2022-10-21T10:57:59.293Z,99944.34
2022-10-21T11:00:42.048Z,99929.84
2022-10-21T11:03:16.120Z,99928.97
2022-10-21T11:05:48.181Z,99927.25
2022-10-21T11:08:19.498Z,99920.44
2022-10-21T11:10:54.777Z,99903.44
2022-10-21T11:13:24.977Z,99924.72
2022-10-21T11:16:11.515Z,99913.59
2022-10-21T11:18:49.423Z,99917.00
2022-10-21T11:21:44.117Z,99903.31
2022-10-21T11:24:30.305Z,99906.75
2022-10-21T11:27:06.296Z,99907.59
2022-10-21T11:29:47.629Z,99901.56
2022-10-21T11:32:42.612Z,99896.41
2022-10-21T11:35:20.309Z,99892.13
2022-10-21T11:38:00.781Z,99898.91
2022-10-21T11:40:40.540Z,99898.88
2022-10-21T11:43:18.901Z,99889.47
2022-10-21T11:45:58.904Z,99889.47
2022-10-21T11:48:43.322Z,99886.91
2022-10-21T11:51:23.842Z,99878.34
2022-10-21T11:54:09.330Z,99874.03
2022-10-21T11:56:45.091Z,99869.78
2022-10-21T11:59:30.903Z,99862.03
2022-10-21T12:02:10.497Z,99855.19
2022-10-21T12:04:51.174Z,99849.19
2022-10-21T12:07:35.511Z,99856.81
2022-10-21T12:10:12.028Z,99851.66
2022-10-21T12:12:46.410Z,99863.63
2022-10-21T12:15:21.242Z,99862.78
2022-10-21T12:17:51.197Z,99844.84
2022-10-21T12:20:24.372Z,99841.41
2022-10-21T12:22:57.256Z,99843.97
2022-10-21T12:25:35.116Z,99832.84
2022-10-21T12:28:09.405Z,99825.16
2022-10-21T12:30:44.974Z,99819.19
2022-10-21T12:33:19.235Z,99820.91
2022-10-21T12:35:53.382Z,99813.22
2022-10-21T12:38:26.725Z,99810.66
2022-10-21T12:41:20.181Z,99799.56
2022-10-21T12:43:54.687Z,99808.94
2022-10-21T12:46:30.165Z,99801.22
2022-10-21T12:49:02.657Z,99808.91
2022-10-21T12:51:33.917Z,99796.94
2022-10-21T12:54:09.988Z,99790.06
2022-10-21T12:56:45.275Z,99800.31
2022-10-21T12:59:30.305Z,99787.53
2022-10-21T13:02:20.133Z,99778.97
2022-10-21T13:04:52.754Z,99776.47
2022-10-21T13:07:36.600Z,99779.91
2022-10-21T13:10:26.586Z,99768.78
2022-10-21T13:13:17.174Z,99779.03
2022-10-21T13:15:48.359Z,99779.03
2022-10-21T13:18:43.843Z,99774.81
2022-10-21T13:21:27.666Z,99770.59
2022-10-21T13:23:58.410Z,99769.75
2022-10-21T13:26:30.337Z,99762.09
2022-10-21T13:29:03.735Z,99766.38
2022-10-21T13:31:32.572Z,99753.56
2022-10-21T13:34:01.757Z,99761.25
2022-10-21T13:36:40.075Z,99749.31
2022-10-21T13:39:24.745Z,99751.84
2022-10-21T13:42:01.234Z,99751.00
2022-10-21T13:44:35.291Z,99754.41
2022-10-21T13:47:25.770Z,99751.75
2022-10-21T13:49:56.276Z,99747.44
2022-10-21T13:52:30.696Z,99750.81
2022-10-21T13:55:00.455Z,99744.84
2022-10-21T13:57:32.460Z,99748.28
2022-10-21T14:00:02.313Z,99732.03
2022-10-21T14:02:33.568Z,99732.91
2022-10-21T14:05:02.592Z,99730.28
2022-10-21T14:07:33.937Z,99729.41
2022-10-21T14:10:07.543Z,99726.91
2022-10-21T14:12:42.348Z,99740.50
2022-10-21T14:15:19.425Z,99745.63
2022-10-21T14:17:55.630Z,99742.19
2022-10-21T14:20:30.509Z,99751.59
2022-10-21T14:23:02.683Z,99750.75
2022-10-21T14:25:32.148Z,99760.19
2022-10-21T14:28:01.870Z,99759.34
2022-10-21T14:30:33.665Z,99765.31
2022-10-21T14:33:06.411Z,99767.03
2022-10-21T14:35:35.151Z,99767.91
2022-10-21T14:38:25.731Z,99758.47
2022-10-21T14:41:00.399Z,99752.53
2022-10-21T14:43:35.409Z,99752.53
2022-10-21T14:46:07.592Z,99743.13
2022-10-21T14:48:39.023Z,99737.13
2022-10-21T14:51:11.548Z,99733.75
2022-10-21T14:53:49.435Z,99730.34
2022-10-21T14:56:21.998Z,99729.53
2022-10-21T14:58:58.124Z,99736.41
2022-10-21T15:01:27.121Z,99737.28
2022-10-21T15:03:58.302Z,99738.97
2022-10-21T15:06:29.499Z,99745.81
2022-10-21T15:09:09.465Z,99746.69
2022-10-21T15:11:42.997Z,99754.38
2022-10-21T15:14:33.431Z,99744.94
2022-10-21T15:17:04.977Z,99745.78
2022-10-21T15:19:46.092Z,99743.22
2022-10-21T15:22:26.620Z,99755.19
2022-10-21T15:25:01.731Z,99739.84
2022-10-21T15:27:37.135Z,99742.41
2022-10-21T15:30:15.518Z,99738.19
2022-10-21T15:32:44.274Z,99734.00
2022-10-21T15:35:15.262Z,99740.78
2022-10-21T15:37:43.950Z,99755.28
2022-10-21T15:40:14.332Z,99760.41
2022-10-21T15:42:43.941Z,99766.41
2022-10-21T15:45:15.282Z,99762.16
2022-10-21T15:47:44.030Z,99763.84
2022-10-21T15:50:15.789Z,99753.63
2022-10-21T15:52:44.548Z,99755.34
2022-10-21T15:55:14.760Z,99751.91
2022-10-21T15:57:44.813Z,99741.69
2022-10-21T16:00:19.605Z,99751.03
2022-10-21T16:02:49.189Z,99745.91
2022-10-21T16:05:17.570Z,99742.50
2022-10-21T16:07:46.449Z,99745.91
2022-10-21T16:10:21.321Z,99737.41
2022-10-21T16:12:51.420Z,99746.84
2022-10-21T16:15:21.130Z,99747.75
2022-10-21T16:17:51.180Z,99758.00
2022-10-21T16:20:22.976Z,99752.84
2022-10-21T16:22:51.623Z,99742.63
2022-10-21T16:25:21.853Z,99752.94
2022-10-21T16:27:56.171Z,99751.22
2022-10-21T16:30:27.453Z,99751.25
2022-10-21T16:32:57.344Z,99737.66
2022-10-21T16:35:26.407Z,99753.00
2022-10-21T16:37:55.979Z,99754.72
2022-10-21T16:40:28.485Z,99753.03
2022-10-21T16:42:57.050Z,99766.69
2022-10-21T16:45:30.392Z,99765.03
2022-10-21T16:48:01.552Z,99761.63
2022-10-21T16:50:39.849Z,99765.06
2022-10-21T16:53:09.311Z,99766.78
2022-10-21T16:55:39.182Z,99779.63
2022-10-21T16:58:07.878Z,99791.59
2022-10-21T17:00:37.218Z,99796.72
2022-10-21T17:03:06.121Z,99777.97
2022-10-21T17:08:08.113Z,99777.09
2022-10-21T17:10:36.602Z,99779.66
2022-10-21T17:13:06.673Z,99775.44
2022-10-21T17:15:35.340Z,99776.28
2022-10-21T17:18:04.051Z,99786.50
2022-10-21T17:20:33.602Z,99778.00
2022-10-21T17:23:02.482Z,99774.56
2022-10-21T17:25:31.811Z,99777.16
2022-10-21T17:28:00.321Z,99783.13
2022-10-21T17:30:31.212Z,99773.72
2022-10-21T17:33:00.011Z,99783.97
2022-10-21T17:35:28.536Z,99785.72
2022-10-21T17:37:57.145Z,99782.31
2022-10-21T17:40:28.826Z,99784.03
2022-10-21T17:42:58.586Z,99776.34
2022-10-21T17:45:27.163Z,99781.50
2022-10-21T17:47:57.136Z,99774.63
2022-10-21T17:50:26.919Z,99772.94
2022-10-21T17:52:56.443Z,99777.19
2022-10-21T17:55:25.202Z,99774.63
2022-10-21T17:57:55.695Z,99761.00
2022-10-21T18:00:24.263Z,99751.59
2022-10-21T18:02:52.925Z,99748.19
2022-10-21T18:05:22.878Z,99756.69
2022-10-21T18:07:51.525Z,99744.72
2022-10-21T18:10:20.172Z,99740.47
2022-10-21T18:12:48.753Z,99735.34
2022-10-21T18:15:17.314Z,99737.88
2022-10-21T18:17:46.183Z,99746.44
2022-10-21T18:20:16.805Z,99741.31
2022-10-21T18:22:47.585Z,99737.94
2022-10-21T18:25:16.813Z,99740.50
2022-10-21T18:27:45.355Z,99727.72
2022-10-21T18:30:14.146Z,99737.97
2022-10-21T18:32:43.008Z,99737.97
2022-10-21T18:35:11.662Z,99737.13
2022-10-21T18:37:40.436Z,99737.13
2022-10-21T18:40:11.902Z,99725.19
2022-10-21T18:42:40.753Z,99725.19
2022-10-21T18:45:10.053Z,99726.00
2022-10-21T18:47:39.426Z,99720.91
2022-10-21T18:50:11.326Z,99718.34
2022-10-21T18:52:39.996Z,99722.63
2022-10-21T18:55:08.843Z,99724.34
2022-10-21T18:57:39.102Z,99726.00
2022-10-21T19:00:09.383Z,99718.34
2022-10-21T19:02:37.864Z,99713.19
2022-10-21T19:05:07.222Z,99718.31
2022-10-21T19:07:36.275Z,99714.06
2022-10-21T19:10:06.029Z,99705.53
2022-10-21T19:12:34.571Z,99703.78
2022-10-21T19:15:04.866Z,99700.41
2022-10-21T19:17:33.674Z,99694.44
2022-10-21T19:20:03.514Z,99695.28
2022-10-21T19:22:32.140Z,99689.28
2022-10-21T19:25:00.693Z,99683.31
2022-10-21T19:27:29.553Z,99678.25
2022-10-21T19:29:58.133Z,99678.22
2022-10-21T19:32:28.086Z,99680.78
2022-10-21T19:34:56.561Z,99685.88
2022-10-21T19:37:25.193Z,99681.59
2022-10-21T19:39:54.104Z,99693.56
2022-10-21T19:42:22.564Z,99698.72
2022-10-21T19:44:51.304Z,99698.72
2022-10-21T19:47:19.754Z,99705.53
2022-10-21T19:49:49.622Z,99702.97
2022-10-21T19:52:18.213Z,99715.75
2022-10-21T19:54:49.425Z,99712.34
2022-10-21T19:57:18.659Z,99708.91
2022-10-21T19:59:49.040Z,99708.09
2022-10-21T20:02:18.150Z,99706.41
2022-10-21T20:04:46.667Z,99698.72
2022-10-21T20:07:16.674Z,99704.69
2022-10-21T20:09:45.554Z,99701.31
2022-10-21T20:12:14.132Z,99694.50
2022-10-21T20:14:44.227Z,99698.75
2022-10-21T20:17:16.208Z,99699.66
2022-10-21T20:19:48.663Z,99698.81
2022-10-21T20:22:19.127Z,99707.38
2022-10-21T20:24:47.782Z,99720.19
2022-10-21T20:27:16.353Z,99724.44
2022-10-21T20:29:45.137Z,99719.34
2022-10-21T20:32:13.774Z,99717.66
2022-10-21T20:34:43.634Z,99723.59
2022-10-21T20:37:12.234Z,99715.97
2022-10-21T20:39:42.255Z,99707.47
2022-10-21T20:42:10.820Z,99705.75
2022-10-21T20:44:39.516Z,99710.03
2022-10-21T20:47:08.096Z,99707.47
2022-10-21T20:49:36.798Z,99700.63
2022-10-21T20:52:05.705Z,99698.09
2022-10-21T20:54:34.298Z,99698.09
2022-10-21T20:57:04.805Z,99702.34
2022-10-21T20:59:33.539Z,99692.13
2022-10-21T21:02:02.287Z,99707.47
2022-10-21T21:04:30.866Z,99704.09
2022-10-21T21:06:59.337Z,99704.09
2022-10-21T21:09:50.060Z,99704.09
2022-10-21T21:12:18.658Z,99698.97
2022-10-21T21:14:47.195Z,99698.97
2022-10-21T21:17:15.924Z,99698.97
2022-10-21T21:19:44.576Z,99698.13
2022-10-21T21:22:13.083Z,99698.97
2022-10-21T21:24:41.733Z,99689.59
2022-10-21T21:27:10.421Z,99687.06
2022-10-21T21:29:40.364Z,99693.88
2022-10-21T21:32:08.956Z,99703.25
2022-10-21T21:34:37.572Z,99705.00
2022-10-21T21:37:06.137Z,99695.66
2022-10-21T21:39:34.677Z,99695.66
2022-10-21T21:42:03.339Z,99700.75
2022-10-21T21:44:32.072Z,99699.03
2022-10-21T21:47:02.105Z,99689.69
2022-10-21T21:49:30.783Z,99690.53
2022-10-21T21:51:59.343Z,99691.41
2022-10-21T21:54:27.923Z,99699.06
2022-10-21T21:57:26.208Z,99703.34
2022-10-21T21:59:47.729Z,99705.91
2022-10-21T22:02:17.663Z,99699.97
2022-10-21T22:04:46.223Z,99697.38
2022-10-21T22:07:14.845Z,99698.25
2022-10-21T22:09:43.408Z,99700.81
2022-10-21T22:12:14.470Z,99687.19
2022-10-21T22:14:43.803Z,99676.09
2022-10-21T22:17:12.408Z,99681.22
2022-10-21T22:19:42.593Z,99680.34
2022-10-21T22:22:11.434Z,99675.28
2022-10-21T22:24:40.467Z,99680.38
2022-10-21T22:27:09.774Z,99668.50
2022-10-21T22:29:38.376Z,99670.19
2022-10-21T22:32:07.876Z,99664.28
2022-10-21T22:34:36.415Z,99660.88
2022-10-21T22:37:06.405Z,99666.81
2022-10-21T22:39:34.956Z,99663.44
2022-10-21T22:42:03.555Z,99660.00
2022-10-21T22:44:32.666Z,99659.19
2022-10-21T22:47:01.247Z,99661.75
2022-10-21T22:49:29.915Z,99660.91
2022-10-21T22:51:58.555Z,99658.34
2022-10-21T22:54:48.070Z,99650.72
2022-10-21T22:57:17.178Z,99649.88
2022-10-21T22:59:50.616Z,99636.22
2022-10-21T23:02:22.342Z,99628.59
2022-10-21T23:04:50.784Z,99633.72
2022-10-21T23:07:19.385Z,99624.38
2022-10-21T23:09:51.773Z,99625.22
2022-10-21T23:12:20.487Z,99625.25
2022-10-21T23:14:49.038Z,99636.31
2022-10-21T23:17:17.947Z,99633.81
2022-10-21T23:19:46.529Z,99638.03
2022-10-21T23:22:15.754Z,99638.06
2022-10-21T23:24:44.465Z,99632.97
2022-10-21T23:27:14.660Z,99636.34
2022-10-21T23:29:43.376Z,99638.06
2022-10-21T23:32:12.338Z,99639.78
2022-10-21T23:34:40.967Z,99644.91
2022-10-21T23:37:09.567Z,99644.91
2022-10-21T23:39:38.407Z,99641.53
2022-10-21T23:42:07.145Z,99645.75
2022-10-21T23:44:37.145Z,99653.44
2022-10-21T23:47:07.437Z,99649.19
2022-10-21T23:49:36.118Z,99656.84
2022-10-21T23:52:06.333Z,99661.97
2022-10-21T23:54:35.143Z,99660.25
2022-10-21T23:57:03.673Z,99645.78
2022-10-21T23:59:32.375Z,99654.28
